createdAt,value
2023-01-08T00:01:18.492Z,3.80
2023-01-08T00:04:41.405Z,4.00
2023-01-08T00:08:03.037Z,4.20
2023-01-08T00:11:24.657Z,4.30
2023-01-08T00:14:46.216Z,4.40
2023-01-08T00:18:07.766Z,4.40
2023-01-08T00:21:30.672Z,4.40
2023-01-08T00:24:52.247Z,4.40
2023-01-08T00:28:13.980Z,4.30
2023-01-08T00:31:35.595Z,4.20
2023-01-08T00:34:57.146Z,4.10
2023-01-08T00:38:20.070Z,4.00
2023-01-08T00:41:41.605Z,3.90
2023-01-08T00:45:03.396Z,3.80
2023-01-08T00:48:24.976Z,3.70
2023-01-08T00:51:46.668Z,3.80
2023-01-08T00:55:09.776Z,3.80
2023-01-08T00:58:31.426Z,3.90
2023-01-08T01:01:53.202Z,4.00
2023-01-08T01:05:15.138Z,4.00
2023-01-08T01:08:36.687Z,4.00
2023-01-08T01:11:59.650Z,3.90
2023-01-08T01:15:21.200Z,3.70
2023-01-08T01:18:42.746Z,3.60
2023-01-08T01:22:04.595Z,3.50
2023-01-08T01:25:27.758Z,3.40
2023-01-08T01:28:51.728Z,3.40
2023-01-08T01:32:13.285Z,3.30
2023-01-08T01:35:34.908Z,3.30
2023-01-08T01:38:57.058Z,3.30
2023-01-08T01:42:19.167Z,3.20
2023-01-08T01:45:42.442Z,3.20
2023-01-08T01:49:06.355Z,3.30
2023-01-08T01:52:28.546Z,3.30
2023-01-08T01:55:50.576Z,3.30
2023-01-08T01:59:12.262Z,3.30
2023-01-08T02:02:35.202Z,3.40
2023-01-08T02:06:00.313Z,3.60
2023-01-08T02:09:23.699Z,3.70
2023-01-08T02:12:47.066Z,3.80
2023-01-08T02:16:12.755Z,3.80
2023-01-08T02:19:38.541Z,3.90
2023-01-08T02:23:10.004Z,4.00
2023-01-08T02:26:34.401Z,4.20
2023-01-08T02:29:56.820Z,4.20
2023-01-08T02:33:18.353Z,4.20
2023-01-08T02:36:41.482Z,4.20
2023-01-08T02:40:07.214Z,4.10
2023-01-08T02:43:36.057Z,4.00
2023-01-08T02:46:58.354Z,3.90
2023-01-08T02:50:24.225Z,3.90
2023-01-08T02:53:47.565Z,3.90
2023-01-08T02:57:11.745Z,3.90
2023-01-08T03:00:34.775Z,3.90
2023-01-08T03:03:58.040Z,3.90
2023-01-08T03:07:19.901Z,3.80
2023-01-08T03:10:42.889Z,3.70
2023-01-08T03:14:07.109Z,3.60
2023-01-08T03:17:31.486Z,3.60
2023-01-08T03:20:53.065Z,3.60
2023-01-08T03:24:16.482Z,3.70
2023-01-08T03:27:39.743Z,3.80
2023-01-08T03:31:02.441Z,3.90
2023-01-08T03:34:27.038Z,3.90
2023-01-08T03:37:51.150Z,4.00
2023-01-08T03:41:14.261Z,4.00
2023-01-08T03:44:35.892Z,4.10
2023-01-08T03:47:58.090Z,4.10
2023-01-08T03:51:21.043Z,4.20
2023-01-08T03:54:42.610Z,4.20
2023-01-08T03:58:04.201Z,4.30
2023-01-08T04:01:25.870Z,4.30
2023-01-08T04:04:47.961Z,4.30
2023-01-08T04:08:10.848Z,4.40
2023-01-08T04:11:32.501Z,4.40
2023-01-08T04:14:54.065Z,4.40
2023-01-08T04:18:15.602Z,4.30
2023-01-08T04:21:37.181Z,4.30
2023-01-08T04:25:00.116Z,4.20
2023-01-08T04:28:21.875Z,4.20
2023-01-08T04:31:43.426Z,4.10
2023-01-08T04:35:05.359Z,4.10
2023-01-08T04:38:26.937Z,4.10
2023-01-08T04:41:49.870Z,4.30
2023-01-08T04:45:11.449Z,4.40
2023-01-08T04:48:33.233Z,4.50
2023-01-08T04:51:54.795Z,4.70
2023-01-08T04:55:16.504Z,5.10
2023-01-08T04:58:39.722Z,5.50
2023-01-08T05:02:01.381Z,6.10
2023-01-08T05:05:23.045Z,6.50
2023-01-08T05:08:44.605Z,6.70
2023-01-08T05:12:06.174Z,6.90
2023-01-08T05:15:29.114Z,7.00
2023-01-08T05:18:50.669Z,7.20
2023-01-08T05:22:12.225Z,7.30
2023-01-08T05:25:34.414Z,7.30
2023-01-08T05:28:55.970Z,7.30
2023-01-08T05:32:19.277Z,7.40
2023-01-08T05:35:40.891Z,7.50
2023-01-08T05:39:02.545Z,7.50
2023-01-08T05:42:24.096Z,7.50
2023-01-08T05:45:45.637Z,7.60
2023-01-08T05:49:08.726Z,7.60
2023-01-08T05:52:30.278Z,7.60
2023-01-08T05:55:51.847Z,7.40
2023-01-08T05:59:13.616Z,6.90
2023-01-08T06:02:35.550Z,6.60
2023-01-08T06:06:02.287Z,6.60
2023-01-08T06:09:23.843Z,6.80
2023-01-08T06:12:45.387Z,7.00
2023-01-08T06:16:07.519Z,7.10
2023-01-08T06:19:29.085Z,7.20
2023-01-08T06:22:53.216Z,7.20
2023-01-08T06:26:14.778Z,7.30
2023-01-08T06:29:36.342Z,7.30
2023-01-08T06:32:58.299Z,7.30
2023-01-08T06:36:19.839Z,7.30
2023-01-08T06:39:42.705Z,7.40
2023-01-08T06:43:04.802Z,7.40
2023-01-08T06:46:26.478Z,7.50
2023-01-08T06:49:48.056Z,7.60
2023-01-08T06:53:09.626Z,7.60
2023-01-08T06:56:37.733Z,7.60
2023-01-08T07:00:07.630Z,7.50
2023-01-08T07:03:29.237Z,7.40
2023-01-08T07:06:50.817Z,7.40
2023-01-08T07:10:12.457Z,7.40
2023-01-08T07:13:35.339Z,7.40
2023-01-08T07:16:56.913Z,7.40
2023-01-08T07:20:18.573Z,7.40
2023-01-08T07:23:40.136Z,7.40
2023-01-08T07:27:01.691Z,7.40
2023-01-08T07:30:33.600Z,7.40
2023-01-08T07:33:55.176Z,7.40
2023-01-08T07:37:16.744Z,7.50
2023-01-08T07:40:39.459Z,7.50
2023-01-08T07:44:01.258Z,7.40
2023-01-08T07:47:24.154Z,7.40
2023-01-08T07:50:45.797Z,7.40
2023-01-08T07:54:07.351Z,7.40
2023-01-08T07:57:28.966Z,7.40
2023-01-08T08:00:50.520Z,7.40
2023-01-08T08:04:15.548Z,7.40
2023-01-08T08:07:37.110Z,7.40
2023-01-08T08:10:58.669Z,7.40
2023-01-08T08:14:20.243Z,7.40
2023-01-08T08:17:44.278Z,7.40
2023-01-08T08:21:07.269Z,7.40
2023-01-08T08:24:28.819Z,7.40
2023-01-08T08:27:50.375Z,7.40
2023-01-08T08:31:11.994Z,7.40
2023-01-08T08:34:33.633Z,7.40
2023-01-08T08:37:56.764Z,7.50
2023-01-08T08:41:18.315Z,7.40
2023-01-08T08:44:42.674Z,7.50
2023-01-08T08:48:05.699Z,7.50
2023-01-08T08:51:27.251Z,7.40
2023-01-08T08:54:50.190Z,7.50
2023-01-08T08:58:13.278Z,7.50
2023-01-08T09:01:35.026Z,7.50
2023-01-08T09:04:57.183Z,7.50
2023-01-08T09:08:24.074Z,7.60
2023-01-08T09:11:47.064Z,7.60
2023-01-08T09:15:09.003Z,7.60
2023-01-08T09:18:30.552Z,7.60
2023-01-08T09:21:52.202Z,7.60
2023-01-08T09:25:13.868Z,7.70
2023-01-08T09:28:36.755Z,7.70
2023-01-08T09:31:58.309Z,7.80
2023-01-08T09:35:19.844Z,7.80
2023-01-08T09:38:41.396Z,7.90
2023-01-08T09:42:04.500Z,8.00
2023-01-08T09:45:29.221Z,8.20
2023-01-08T09:48:52.109Z,8.20
2023-01-08T09:52:14.828Z,8.20
2023-01-08T09:55:36.402Z,8.30
2023-01-08T09:58:59.063Z,8.20
2023-01-08T10:02:25.787Z,8.20
2023-01-08T10:05:48.196Z,8.10
2023-01-08T10:09:13.443Z,8.10
2023-01-08T10:12:35.100Z,8.10
2023-01-08T10:15:56.883Z,8.20
2023-01-08T10:19:19.849Z,8.30
2023-01-08T10:22:41.877Z,8.30
2023-01-08T10:26:03.496Z,8.40
2023-01-08T10:29:25.160Z,8.50
2023-01-08T10:32:47.728Z,8.60
2023-01-08T10:36:12.977Z,8.70
2023-01-08T10:39:34.656Z,8.70
2023-01-08T10:43:05.767Z,8.80
2023-01-08T10:46:28.363Z,9.00
2023-01-08T10:49:50.047Z,9.00
2023-01-08T10:53:22.911Z,9.00
2023-01-08T10:56:44.711Z,9.00
2023-01-08T11:00:21.667Z,9.10
2023-01-08T11:03:43.710Z,9.10
2023-01-08T11:07:06.786Z,9.20
2023-01-08T11:10:29.875Z,9.30
2023-01-08T11:13:59.095Z,9.40
2023-01-08T11:17:26.231Z,9.50
2023-01-08T11:20:50.492Z,9.60
2023-01-08T11:24:18.655Z,9.70
2023-01-08T11:27:44.707Z,9.80
2023-01-08T11:31:13.515Z,9.70
2023-01-08T11:34:39.674Z,9.80
2023-01-08T11:38:02.080Z,9.90
2023-01-08T11:41:36.771Z,9.80
2023-01-08T11:45:07.563Z,9.90
2023-01-08T11:48:34.133Z,9.90
2023-01-08T11:52:04.632Z,9.90
2023-01-08T11:55:32.020Z,10.00
2023-01-08T11:59:02.316Z,10.10
2023-01-08T12:02:33.570Z,10.20
2023-01-08T12:06:02.341Z,10.30
2023-01-08T12:09:34.045Z,10.30
2023-01-08T12:13:01.972Z,10.30
2023-01-08T12:16:32.974Z,10.20
2023-01-08T12:20:03.710Z,10.20
2023-01-08T12:23:32.506Z,10.20
2023-01-08T12:26:57.620Z,10.20
2023-01-08T12:30:24.622Z,10.20
2023-01-08T12:33:50.408Z,10.20
2023-01-08T12:37:14.956Z,10.20
2023-01-08T12:40:39.847Z,10.20
2023-01-08T12:44:02.637Z,10.20
2023-01-08T12:47:25.820Z,10.20
2023-01-08T12:50:59.544Z,10.20
2023-01-08T12:54:30.522Z,10.20
2023-01-08T12:57:56.506Z,10.10
2023-01-08T13:01:24.094Z,10.00
2023-01-08T13:04:46.998Z,10.00
2023-01-08T13:08:21.224Z,10.00
2023-01-08T13:11:50.820Z,10.00
2023-01-08T13:15:19.591Z,10.10
2023-01-08T13:18:41.297Z,10.00
2023-01-08T13:22:02.932Z,10.00
2023-01-08T13:25:29.445Z,9.90
2023-01-08T13:28:52.710Z,9.80
2023-01-08T13:32:24.907Z,9.90
2023-01-08T13:35:46.693Z,9.90
2023-01-08T13:39:21.656Z,9.90
2023-01-08T13:42:43.290Z,9.80
2023-01-08T13:46:09.298Z,9.80
2023-01-08T13:49:36.990Z,9.80
2023-01-08T13:52:59.950Z,9.90
2023-01-08T13:56:21.723Z,10.00
2023-01-08T13:59:47.879Z,10.20
2023-01-08T14:03:23.669Z,10.40
2023-01-08T14:06:45.263Z,10.50
2023-01-08T14:10:08.296Z,10.70
2023-01-08T14:13:31.190Z,10.60
2023-01-08T14:16:53.093Z,10.60
2023-01-08T14:20:20.171Z,10.40
2023-01-08T14:23:44.686Z,10.20
2023-01-08T14:27:19.140Z,10.10
2023-01-08T14:30:47.106Z,9.90
2023-01-08T14:34:09.913Z,9.80
2023-01-08T14:37:33.529Z,10.00
2023-01-08T14:40:58.934Z,10.00
2023-01-08T14:44:25.959Z,10.10
2023-01-08T14:47:52.671Z,10.10
2023-01-08T14:51:15.240Z,10.10
2023-01-08T14:54:38.584Z,10.10
2023-01-08T14:58:00.405Z,10.10
2023-01-08T15:01:23.674Z,10.00
2023-01-08T15:04:45.398Z,9.90
2023-01-08T15:08:22.884Z,9.80
2023-01-08T15:11:51.794Z,9.70
2023-01-08T15:15:22.510Z,9.70
2023-01-08T15:18:45.787Z,9.70
2023-01-08T15:22:13.751Z,9.60
2023-01-08T15:25:35.313Z,9.50
2023-01-08T15:28:59.292Z,9.30
2023-01-08T15:32:21.739Z,9.10
2023-01-08T15:35:43.305Z,9.00
2023-01-08T15:39:05.479Z,8.80
2023-01-08T15:42:28.793Z,8.70
2023-01-08T16:15:29.297Z,8.50
2023-01-08T16:18:50.864Z,8.40
2023-01-08T16:22:12.635Z,8.30
2023-01-08T16:25:35.358Z,8.30
2023-01-08T16:28:57.626Z,8.20
2023-01-08T16:32:21.821Z,8.20
2023-01-08T16:35:45.099Z,8.30
2023-01-08T16:39:07.424Z,8.20
2023-01-08T16:42:29.159Z,8.30
2023-01-08T16:45:51.276Z,8.30
2023-01-08T16:49:14.581Z,8.30
2023-01-08T16:52:36.755Z,8.20
2023-01-08T16:55:58.791Z,8.30
2023-01-08T16:59:23.661Z,8.30
2023-01-08T17:02:45.402Z,8.30
2023-01-08T17:06:09.318Z,8.20
2023-01-08T17:09:30.899Z,8.20
2023-01-08T17:12:52.599Z,8.10
2023-01-08T17:16:15.205Z,8.00
2023-01-08T17:19:36.805Z,7.80
2023-01-08T17:22:59.814Z,7.70
2023-01-08T17:26:21.390Z,7.60
2023-01-08T17:29:43.025Z,7.60
2023-01-08T17:33:04.603Z,7.50
2023-01-08T17:36:26.366Z,7.40
2023-01-08T17:39:49.276Z,7.40
2023-01-08T17:43:11.002Z,7.40
2023-01-08T17:46:33.725Z,7.40
2023-01-08T17:49:56.078Z,7.40
2023-01-08T17:53:17.770Z,7.40
2023-01-08T17:56:40.689Z,7.40
2023-01-08T18:00:02.253Z,7.40
2023-01-08T18:03:24.049Z,7.40
2023-01-08T18:06:45.665Z,7.40
2023-01-08T18:10:08.216Z,7.40
2023-01-08T18:13:32.250Z,7.40
2023-01-08T18:16:53.875Z,7.40
2023-01-08T18:20:15.747Z,7.40
2023-01-08T18:23:37.292Z,7.50
2023-01-08T18:26:58.873Z,7.50
2023-01-08T18:30:22.317Z,7.60
2023-01-08T18:33:43.873Z,7.60
2023-01-08T18:37:05.439Z,7.60
2023-01-08T18:40:27.018Z,7.60
2023-01-08T18:43:48.939Z,7.60
2023-01-08T18:47:11.903Z,7.60
2023-01-08T18:50:33.456Z,7.60
2023-01-08T18:53:55.047Z,7.60
2023-01-08T18:57:16.820Z,7.50
2023-01-08T19:00:38.453Z,7.50
2023-01-08T19:04:01.718Z,7.40
2023-01-08T19:07:23.269Z,7.40
2023-01-08T19:10:44.829Z,7.50
2023-01-08T19:14:06.398Z,7.50
2023-01-08T19:17:29.424Z,7.50
2023-01-08T19:20:52.335Z,7.60
2023-01-08T19:24:13.895Z,7.60
2023-01-08T19:27:35.465Z,7.70
2023-01-08T19:30:57.311Z,7.70
2023-01-08T19:34:18.880Z,7.80
2023-01-08T19:37:41.813Z,7.80
2023-01-08T19:41:03.505Z,7.80
2023-01-08T19:44:25.085Z,7.80
2023-01-08T19:47:46.666Z,7.80
2023-01-08T19:51:08.932Z,7.70
2023-01-08T19:54:31.837Z,7.80
2023-01-08T19:57:53.402Z,7.70
2023-01-08T20:01:15.817Z,7.80
2023-01-08T20:04:37.424Z,7.70
2023-01-08T20:07:58.992Z,7.70
2023-01-08T20:11:22.592Z,7.70
2023-01-08T20:14:44.205Z,7.70
2023-01-08T20:18:05.817Z,7.60
2023-01-08T20:21:27.516Z,7.60
2023-01-08T20:24:49.472Z,7.50
2023-01-08T20:28:12.553Z,7.50
2023-01-08T20:31:34.334Z,7.50
2023-01-08T20:34:56.385Z,7.40
2023-01-08T20:38:18.306Z,7.40
2023-01-08T20:41:43.568Z,7.40
2023-01-08T20:45:13.238Z,7.40
2023-01-08T20:48:42.939Z,7.40
2023-01-08T20:52:04.845Z,7.40
2023-01-08T20:55:26.633Z,7.40
2023-01-08T20:58:49.096Z,7.40
2023-01-08T21:02:12.382Z,7.30
2023-01-08T21:05:34.091Z,7.40
2023-01-08T21:08:57.936Z,7.40
2023-01-08T21:12:19.754Z,7.40
2023-01-08T21:15:41.745Z,7.40
2023-01-08T21:19:04.866Z,7.40
2023-01-08T21:22:26.606Z,7.40
2023-01-08T21:25:48.166Z,7.40
2023-01-08T21:29:10.343Z,7.30
2023-01-08T21:32:31.902Z,7.30
2023-01-08T21:35:54.843Z,7.30
2023-01-08T21:39:16.565Z,7.20
2023-01-08T21:42:38.164Z,7.20
2023-01-08T21:46:00.860Z,7.10
2023-01-08T21:49:22.612Z,7.10
2023-01-08T21:52:45.989Z,7.10
2023-01-08T21:56:07.592Z,7.10
2023-01-08T21:59:29.210Z,7.10
2023-01-08T22:02:50.776Z,7.10
2023-01-08T22:06:12.505Z,7.10
2023-01-08T22:09:35.502Z,7.10
2023-01-08T22:12:57.049Z,7.10
2023-01-08T22:16:18.649Z,7.10
2023-01-08T22:19:40.692Z,7.10
2023-01-08T22:23:03.200Z,7.10
2023-01-08T22:26:26.162Z,7.10
2023-01-08T22:29:47.893Z,7.10
2023-01-08T22:33:09.445Z,7.10
2023-01-08T22:36:31.022Z,7.10
2023-01-08T22:39:52.601Z,7.00
2023-01-08T22:43:15.520Z,7.00
2023-01-08T22:46:37.181Z,7.00
2023-01-08T22:49:58.746Z,7.00
2023-01-08T22:53:20.325Z,6.90
2023-01-08T22:56:41.884Z,7.00
2023-01-08T23:00:06.258Z,6.90
2023-01-08T23:03:29.323Z,6.90
2023-01-08T23:06:51.007Z,6.90
2023-01-08T23:10:12.569Z,6.90
2023-01-08T23:13:34.202Z,6.90
2023-01-08T23:16:57.110Z,6.90
2023-01-08T23:20:19.053Z,6.80
2023-01-08T23:23:40.993Z,6.90
2023-01-08T23:27:02.576Z,6.80
2023-01-08T23:30:24.134Z,6.80
2023-01-08T23:33:47.042Z,6.80
2023-01-08T23:37:08.619Z,6.80
2023-01-08T23:40:30.183Z,6.80
2023-01-08T23:43:51.755Z,6.80
2023-01-08T23:47:13.317Z,6.80
2023-01-08T23:50:36.214Z,6.80
2023-01-08T23:53:57.769Z,6.80
2023-01-08T23:57:19.328Z,6.80
